Time;durP1;ratioP1;P1;durP2;ratioP2;P2;SDS_P1;SDS_P2;PMS_P1;PMS_P2;Temp;Humidity;BMP_temperature;BMP_pressure;BME280_temperature;BME280_humidity;BME280_pressure;Samples;Min_cycle;Max_cycle;Signal;HPM_P1;HPM_P2
2023/05/19 00:01:29;;;;;;;7.22;0.93;;;;;;;15.24;61.25;102303.94;7360077;19;20245;-63
2023/05/19 00:04:01;;;;;;;4.35;0.90;;;;;;;15.21;61.80;102304.25;7363204;19;20134;-62
2023/05/19 00:06:30;;;;;;;9.00;0.90;;;;;;;15.18;61.74;102309.00;7361925;19;20033;-63
2023/05/19 00:09:02;;;;;;;4.82;0.80;;;;;;;15.17;62.95;102304.69;7363246;19;20022;-63
2023/05/19 00:11:30;;;;;;;5.63;0.95;;;;;;;15.15;63.07;102304.81;7357258;19;20010;-63
2023/05/19 00:13:59;;;;;;;6.03;0.82;;;;;;;15.11;62.61;102303.44;7364657;19;20109;-62
2023/05/19 00:16:27;;;;;;;6.45;0.80;;;;;;;15.09;63.34;102301.91;7361577;19;20026;-61
2023/05/19 00:18:58;;;;;;;5.32;0.93;;;;;;;15.07;63.63;102299.41;7364130;19;20014;-61
2023/05/19 00:21:27;;;;;;;4.85;1.30;;;;;;;15.03;63.00;102300.69;7357792;19;20133;-61
2023/05/19 00:23:55;;;;;;;5.10;1.08;;;;;;;15.03;63.19;102294.56;7363161;19;20007;-63
2023/05/19 00:26:23;;;;;;;2.97;0.70;;;;;;;14.97;63.11;102304.75;7363514;19;20014;-63
2023/05/19 00:28:51;;;;;;;5.68;0.95;;;;;;;14.92;64.10;102298.22;7366170;19;20018;-61
2023/05/19 00:31:18;;;;;;;4.07;1.00;;;;;;;14.91;64.62;102304.50;7362186;19;20018;-63
2023/05/19 00:33:46;;;;;;;4.38;0.90;;;;;;;14.89;64.62;102306.44;7362940;19;20014;-63
2023/05/19 00:36:13;;;;;;;4.38;0.88;;;;;;;14.87;64.86;102296.00;7361530;19;20736;-62
2023/05/19 00:38:40;;;;;;;6.63;1.08;;;;;;;14.87;65.56;102300.47;7362317;19;20025;-62
2023/05/19 00:41:07;;;;;;;5.00;1.25;;;;;;;14.86;66.10;102299.63;7361076;19;20022;-63
2023/05/19 00:43:35;;;;;;;6.00;1.38;;;;;;;14.86;65.57;102296.13;7362263;19;20018;-62
2023/05/19 00:46:02;;;;;;;4.05;1.15;;;;;;;14.81;65.77;102293.94;7358857;19;20692;-63
2023/05/19 00:48:30;;;;;;;6.40;1.20;;;;;;;14.79;65.88;102298.53;7359961;19;20067;-62
2023/05/19 00:53:33;;;;;;;7.38;1.33;;;;;;;14.77;67.24;102292.56;7361925;19;20022;-63
2023/05/19 00:56:03;;;;;;;4.53;1.02;;;;;;;14.75;67.20;102291.84;7360913;19;20033;-62
2023/05/19 00:58:32;;;;;;;3.58;1.30;;;;;;;14.76;66.84;102303.28;7361564;19;20567;-63
2023/05/19 01:03:34;;;;;;;4.82;1.25;;;;;;;14.75;67.44;102299.78;7362838;19;20628;-62
2023/05/19 01:06:03;;;;;;;7.40;1.70;;;;;;;14.77;67.40;102299.66;7360905;19;20095;-62
2023/05/19 01:08:32;;;;;;;4.72;1.63;;;;;;;14.76;67.07;102304.13;7361026;19;20015;-62
2023/05/19 01:10:59;;;;;;;6.47;2.53;;;;;;;14.72;67.35;102308.03;7361169;19;20010;-62
2023/05/19 01:13:28;;;;;;;5.55;1.40;;;;;;;14.68;67.79;102306.63;7361040;19;20086;-61
2023/05/19 01:16:00;;;;;;;11.50;2.65;;;;;;;14.67;68.03;102304.16;7359866;19;20014;-63
2023/05/19 01:18:40;;;;;;;12.90;2.33;;;;;;;14.70;68.12;102304.69;7360632;19;20166;-62
2023/05/19 01:21:25;;;;;;;10.35;2.20;;;;;;;14.69;67.99;102294.22;7358663;19;20022;-62
2023/05/19 01:24:01;;;;;;;5.80;2.13;;;;;;;14.65;68.47;102298.97;7361912;19;20145;-61
2023/05/19 01:26:32;;;;;;;10.95;2.35;;;;;;;14.65;69.39;102296.34;7361618;19;21244;-61
2023/05/19 01:29:06;;;;;;;9.23;1.55;;;;;;;14.65;69.15;102296.34;7362220;19;20109;-61
2023/05/19 01:31:36;;;;;;;8.10;2.10;;;;;;;14.65;69.24;102298.97;7359091;19;20680;-61
2023/05/19 01:34:05;;;;;;;8.93;2.17;;;;;;;14.61;68.82;102294.13;7357513;19;20026;-61
2023/05/19 01:36:33;;;;;;;7.35;2.40;;;;;;;14.58;69.59;102295.22;7359385;19;20423;-61
2023/05/19 01:39:01;;;;;;;6.20;2.00;;;;;;;14.55;69.82;102290.22;7359305;19;20029;-61
2023/05/19 01:41:31;;;;;;;4.63;2.08;;;;;;;14.51;69.96;102284.38;7359280;19;20123;-62
2023/05/19 01:43:58;;;;;;;6.10;2.30;;;;;;;14.52;69.20;102280.75;7362751;19;20491;-63
2023/05/19 01:46:26;;;;;;;7.18;1.90;;;;;;;14.51;69.59;102287.03;7360336;19;20018;-62
2023/05/19 01:48:54;;;;;;;6.00;1.98;;;;;;;14.45;69.11;102284.09;7361486;19;20022;-62
2023/05/19 01:51:21;;;;;;;6.88;2.17;;;;;;;14.40;70.58;102289.00;7360497;19;20541;-62
2023/05/19 01:53:48;;;;;;;7.20;2.22;;;;;;;14.41;72.08;102295.97;7361815;19;20024;-62
2023/05/19 01:56:37;;;;;;;7.70;2.55;;;;;;;14.44;70.98;102282.44;7360598;19;20015;-62
2023/05/19 01:59:22;;;;;;;7.07;2.15;;;;;;;14.40;70.55;102291.63;7358429;19;20291;-62
2023/05/19 02:01:53;;;;;;;5.97;2.40;;;;;;;14.39;71.12;102292.59;7355343;19;20128;-62
2023/05/19 02:04:25;;;;;;;8.77;2.15;;;;;;;14.38;71.24;102285.63;7360732;19;20014;-63
2023/05/19 02:07:00;;;;;;;8.77;2.47;;;;;;;14.36;71.15;102291.09;7357183;19;20462;-63
2023/05/19 02:09:37;;;;;;;10.52;2.60;;;;;;;14.32;71.11;102300.28;7359687;19;20018;-62
2023/05/19 02:12:11;;;;;;;8.57;2.50;;;;;;;14.30;71.55;102288.13;7361963;19;20011;-62
2023/05/19 02:14:45;;;;;;;10.20;2.78;;;;;;;14.28;71.63;102290.06;7360134;19;20015;-62
2023/05/19 02:17:15;;;;;;;7.72;2.33;;;;;;;14.26;72.12;102289.41;7359467;19;20018;-62
2023/05/19 02:19:43;;;;;;;10.20;2.63;;;;;;;14.26;71.78;102284.94;7359476;19;20763;-61
2023/05/19 02:22:10;;;;;;;8.10;2.38;;;;;;;14.27;72.15;102285.78;7356441;19;20021;-62
2023/05/19 02:24:38;;;;;;;7.07;2.47;;;;;;;14.27;72.36;102267.25;7359441;19;20014;-61
2023/05/19 02:27:06;;;;;;;8.60;2.67;;;;;;;14.21;71.99;102278.38;7354350;19;20052;-62
2023/05/19 02:29:33;;;;;;;10.70;2.60;;;;;;;14.19;72.33;102270.59;7357222;19;20110;-62
2023/05/19 02:32:01;;;;;;;6.93;1.98;;;;;;;14.17;72.63;102277.81;7356578;19;20027;-62
2023/05/19 02:34:28;;;;;;;5.53;1.90;;;;;;;14.16;73.12;102276.16;7358147;19;20015;-62
2023/05/19 02:36:55;;;;;;;8.73;1.83;;;;;;;14.17;73.26;102277.00;7353996;19;20038;-62
2023/05/19 02:39:23;;;;;;;8.95;2.20;;;;;;;14.13;73.45;102271.13;7358482;19;20516;-62
2023/05/19 02:41:50;;;;;;;8.30;2.33;;;;;;;14.17;73.82;102274.34;7356436;19;20010;-62
2023/05/19 02:44:17;;;;;;;7.63;1.88;;;;;;;14.16;73.24;102268.22;7358338;19;20145;-62
2023/05/19 02:46:45;;;;;;;8.80;2.47;;;;;;;14.13;73.65;102271.13;7361473;19;20023;-62
2023/05/19 02:49:13;;;;;;;6.50;2.10;;;;;;;14.09;74.09;102270.59;7366431;19;20010;-61
2023/05/19 02:51:41;;;;;;;8.77;2.10;;;;;;;14.12;74.50;102275.59;7364192;19;20018;-62
2023/05/19 02:54:08;;;;;;;7.20;2.20;;;;;;;14.13;74.24;102276.44;7365794;19;20047;-63
2023/05/19 02:56:35;;;;;;;6.22;3.00;;;;;;;14.11;74.85;102273.94;7365959;19;20098;-62
2023/05/19 02:59:03;;;;;;;7.32;2.30;;;;;;;14.06;74.26;102273.53;7366356;19;20011;-62
2023/05/19 03:01:31;;;;;;;8.18;2.10;;;;;;;14.03;74.88;102281.72;7364102;19;20022;-62
2023/05/19 03:03:58;;;;;;;9.85;2.42;;;;;;;14.06;74.30;102284.13;7366170;19;20951;-63
2023/05/19 03:06:26;;;;;;;8.93;2.10;;;;;;;14.02;74.25;102272.09;7364266;19;20086;-63
2023/05/19 03:08:53;;;;;;;5.80;2.10;;;;;;;14.03;74.58;102268.50;7363663;19;20014;-62
2023/05/19 03:11:22;;;;;;;9.95;2.17;;;;;;;14.04;74.71;102261.41;7363980;19;20025;-63
2023/05/19 03:13:49;;;;;;;8.48;2.65;;;;;;;13.99;74.35;102260.97;7362520;19;20015;-61
2023/05/19 03:16:16;;;;;;;8.48;2.40;;;;;;;13.97;74.49;102266.41;7363047;19;20022;-61
2023/05/19 03:18:43;;;;;;;7.97;2.20;;;;;;;13.93;74.55;102269.47;7364817;19;20027;-64
2023/05/19 03:21:26;;;;;;;9.02;2.17;;;;;;;13.95;75.31;102272.81;7363233;19;20018;-63
2023/05/19 03:23:54;;;;;;;7.22;2.42;;;;;;;13.97;75.59;102269.03;7365185;19;20355;-62
2023/05/19 03:26:21;;;;;;;9.43;2.50;;;;;;;13.98;75.46;102265.44;7363561;19;20020;-62
2023/05/19 03:28:49;;;;;;;6.75;2.45;;;;;;;13.96;75.63;102267.41;7364655;19;20017;-61
2023/05/19 03:31:17;;;;;;;10.75;3.83;;;;;;;13.95;74.63;102263.06;7362243;19;20022;-62
2023/05/19 03:33:44;;;;;;;9.23;3.05;;;;;;;13.95;74.68;102267.53;7364089;19;20113;-62
2023/05/19 03:36:12;;;;;;;8.10;2.60;;;;;;;13.95;75.57;102259.59;7360648;19;20014;-62
2023/05/19 03:38:39;;;;;;;10.32;2.70;;;;;;;13.94;75.58;102258.75;7364030;19;20019;-62
2023/05/19 03:41:07;;;;;;;8.15;2.65;;;;;;;13.92;75.95;102259.84;7363322;19;20018;-62
2023/05/19 03:43:34;;;;;;;8.82;2.95;;;;;;;13.88;75.65;102253.16;7363593;19;20015;-62
2023/05/19 03:46:02;;;;;;;8.23;2.53;;;;;;;13.89;75.60;102265.44;7362597;19;20026;-62
2023/05/19 03:48:29;;;;;;;8.85;2.33;;;;;;;13.92;76.04;102258.03;7365320;19;20018;-62
2023/05/19 03:50:56;;;;;;;7.90;2.83;;;;;;;13.91;75.53;102259.03;7365362;19;20019;-62
2023/05/19 03:53:25;;;;;;;9.25;2.78;;;;;;;13.88;75.14;102255.81;7366097;19;20328;-62
2023/05/19 03:55:52;;;;;;;7.78;2.50;;;;;;;13.86;74.70;102260.44;7361938;19;20010;-62
2023/05/19 03:58:19;;;;;;;12.85;2.88;;;;;;;13.86;74.99;102255.97;7362477;19;20067;-61
2023/05/19 04:00:46;;;;;;;9.48;2.47;;;;;;;13.91;76.62;102253.75;7360722;19;20019;-65
2023/05/19 04:03:14;;;;;;;11.60;3.70;;;;;;;13.90;75.45;102246.78;7361402;19;20030;-61
2023/05/19 04:05:41;;;;;;;11.93;3.47;;;;;;;13.92;75.25;102250.09;7360361;19;20026;-62
2023/05/19 04:08:09;;;;;;;10.15;3.63;;;;;;;13.97;77.15;102257.63;7363942;19;20021;-62
2023/05/19 04:10:36;;;;;;;11.38;3.10;;;;;;;13.95;75.99;102254.28;7361851;19;20022;-62
2023/05/19 04:13:04;;;;;;;9.55;2.53;;;;;;;13.95;75.14;102260.44;7365268;19;20014;-61
2023/05/19 04:15:31;;;;;;;10.45;3.08;;;;;;;13.95;75.03;102255.13;7361685;19;20031;-61
2023/05/19 04:17:58;;;;;;;9.95;3.67;;;;;;;13.95;75.10;102263.06;7361143;19;20014;-63
2023/05/19 04:20:25;;;;;;;10.52;4.60;;;;;;;13.96;74.82;102270.03;7361546;19;20022;-61
2023/05/19 04:22:53;;;;;;;14.57;5.60;;;;;;;13.96;74.80;102262.09;7358965;19;20018;-62
2023/05/19 04:25:20;;;;;;;15.93;5.45;;;;;;;14.01;74.59;102266.97;7362026;19;20059;-61
2023/05/19 04:27:48;;;;;;;14.52;5.47;;;;;;;13.96;74.86;102263.91;7361671;19;20018;-62
2023/05/19 04:30:20;;;;;;;17.73;6.72;;;;;;;13.95;74.79;102265.72;7360861;19;20010;-62
2023/05/19 04:32:49;;;;;;;14.10;6.78;;;;;;;13.91;74.93;102266.16;7361636;19;20090;-62
2023/05/19 04:35:17;;;;;;;12.65;6.03;;;;;;;13.91;75.06;102264.34;7361839;19;21326;-61
2023/05/19 04:37:44;;;;;;;12.15;5.63;;;;;;;13.90;75.31;102269.75;7362251;19;20078;-62
2023/05/19 04:40:12;;;;;;;13.70;5.40;;;;;;;13.90;75.44;102275.06;7360163;19;20026;-62
2023/05/19 04:42:41;;;;;;;20.45;6.57;;;;;;;13.89;77.23;102278.66;7359197;19;20026;-62
2023/05/19 04:45:11;;;;;;;18.45;7.05;;;;;;;13.89;75.99;102271.56;7360679;19;20116;-62
2023/05/19 04:47:39;;;;;;;14.85;5.65;;;;;;;13.92;75.45;102275.72;7358383;19;20018;-62
2023/05/19 04:50:06;;;;;;;14.65;6.65;;;;;;;13.93;75.79;102267.66;7361549;19;20015;-61
2023/05/19 04:52:33;;;;;;;19.55;6.68;;;;;;;13.98;75.21;102269.88;7359993;19;20488;-62
2023/05/19 04:55:01;;;;;;;15.02;6.43;;;;;;;14.00;76.52;102270.59;7361633;19;20517;-63
2023/05/19 04:57:28;;;;;;;19.38;7.30;;;;;;;13.99;75.00;102274.22;7360349;19;20014;-62
2023/05/19 04:59:58;;;;;;;18.35;7.63;;;;;;;13.98;77.19;102269.88;7361213;19;20438;-62
2023/05/19 05:02:26;;;;;;;14.15;6.70;;;;;;;13.98;75.67;102267.25;7357282;19;21106;-62
2023/05/19 05:04:55;;;;;;;12.02;6.78;;;;;;;13.96;75.48;102262.09;7361410;19;20018;-62
2023/05/19 05:07:22;;;;;;;18.40;8.68;;;;;;;14.00;77.21;102260.84;7359725;19;20093;-62
2023/05/19 05:09:49;;;;;;;16.58;7.30;;;;;;;14.05;77.67;102260.44;7362958;19;20484;-62
2023/05/19 05:12:17;;;;;;;17.67;7.47;;;;;;;14.09;78.48;102265.28;7363310;19;20048;-61
2023/05/19 05:14:45;;;;;;;20.17;8.43;;;;;;;14.12;80.78;102264.16;7362583;19;20057;-62
2023/05/19 05:17:13;;;;;;;15.18;7.28;;;;;;;14.15;79.64;102261.25;7359891;19;20018;-63
2023/05/19 05:19:40;;;;;;;18.58;7.75;;;;;;;14.16;78.02;102262.94;7361922;19;20031;-62
2023/05/19 05:22:08;;;;;;;19.95;7.65;;;;;;;14.16;77.30;102265.56;7359555;19;20328;-61
2023/05/19 05:24:36;;;;;;;15.35;7.20;;;;;;;14.20;77.21;102255.53;7361622;19;20014;-63
2023/05/19 05:27:04;;;;;;;19.15;7.00;;;;;;;14.19;77.12;102265.28;7361128;19;20048;-61
2023/05/19 05:29:31;;;;;;;19.05;8.20;;;;;;;14.22;77.21;102259.69;7359419;19;20854;-62
2023/05/19 05:31:59;;;;;;;21.55;7.45;;;;;;;14.23;77.15;102249.94;7358455;19;20041;-62
2023/05/19 05:34:27;;;;;;;17.17;7.03;;;;;;;14.26;76.75;102258.47;7360895;19;20221;-62
2023/05/19 05:36:54;;;;;;;17.65;7.53;;;;;;;14.29;75.70;102252.88;7359812;19;20306;-62
2023/05/19 05:39:21;;;;;;;19.65;8.23;;;;;;;14.31;76.41;102256.22;7361721;19;20210;-63
2023/05/19 05:41:49;;;;;;;18.50;7.63;;;;;;;14.30;76.44;102251.91;7360636;19;20022;-63
2023/05/19 05:44:16;;;;;;;20.77;7.72;;;;;;;14.37;76.16;102246.91;7359203;19;20026;-64
2023/05/19 05:46:44;;;;;;;20.92;7.43;;;;;;;14.38;75.31;102256.50;7355806;19;20014;-63
2023/05/19 05:49:12;;;;;;;14.93;6.97;;;;;;;14.39;76.28;102243.13;7361822;19;20014;-63
2023/05/19 05:51:40;;;;;;;17.95;7.10;;;;;;;14.44;75.81;102248.00;7358307;19;20057;-62
2023/05/19 05:54:20;;;;;;;18.02;7.55;;;;;;;14.45;74.84;102249.69;7361001;19;20094;-63
2023/05/19 05:56:48;;;;;;;15.05;6.32;;;;;;;14.46;73.87;102246.06;7358820;19;20018;-63
2023/05/19 05:59:16;;;;;;;14.85;7.05;;;;;;;14.44;74.48;102246.19;7362986;19;20023;-63
2023/05/19 06:01:43;;;;;;;17.02;7.30;;;;;;;14.49;74.45;102243.94;7356282;19;20021;-63
2023/05/19 06:04:10;;;;;;;12.32;5.82;;;;;;;14.53;75.80;102240.03;7360913;19;20097;-62
2023/05/19 06:06:38;;;;;;;18.85;6.95;;;;;;;14.57;73.27;102235.28;7356630;19;20010;-62
2023/05/19 06:09:05;;;;;;;20.83;6.78;;;;;;;14.59;73.58;102243.91;7360061;19;20701;-61
2023/05/19 06:11:32;;;;;;;16.42;6.80;;;;;;;14.64;74.13;102236.38;7358151;19;20018;-62
2023/05/19 06:14:00;;;;;;;16.58;7.28;;;;;;;14.67;72.91;102232.63;7359650;19;20034;-62
2023/05/19 06:16:27;;;;;;;17.30;6.35;;;;;;;14.69;73.74;102230.63;7357760;19;20136;-62
2023/05/19 06:18:55;;;;;;;18.58;6.65;;;;;;;14.71;74.78;102242.78;7357824;19;20454;-62
2023/05/19 06:21:22;;;;;;;15.88;6.88;;;;;;;14.75;74.84;102240.66;7366128;19;20019;-62
2023/05/19 06:23:49;;;;;;;17.58;7.30;;;;;;;14.78;76.32;102243.84;7364219;19;20022;-62
2023/05/19 06:26:17;;;;;;;18.17;6.78;;;;;;;14.79;74.16;102245.53;7367320;19;20061;-63
2023/05/19 06:28:44;;;;;;;18.08;7.43;;;;;;;14.81;73.90;102238.28;7365256;19;20138;-63
2023/05/19 06:31:11;;;;;;;16.60;7.28;;;;;;;14.79;74.02;102234.91;7362785;19;20347;-62
2023/05/19 06:33:39;;;;;;;19.50;6.82;;;;;;;14.71;73.98;102245.44;7364513;19;20094;-63
2023/05/19 06:36:08;;;;;;;16.75;6.82;;;;;;;14.67;73.13;102237.91;7363752;19;20023;-61
2023/05/19 06:38:36;;;;;;;19.83;6.68;;;;;;;14.70;73.55;102245.56;7365536;19;20022;-63
2023/05/19 06:41:03;;;;;;;16.30;6.72;;;;;;;14.73;74.46;102248.75;7363768;19;20134;-62
2023/05/19 06:43:31;;;;;;;16.50;6.32;;;;;;;14.74;74.06;102241.63;7363531;19;20019;-63
2023/05/19 06:45:59;;;;;;;20.20;6.05;;;;;;;14.79;73.44;102247.34;7362269;19;20101;-64
2023/05/19 06:48:26;;;;;;;16.17;6.25;;;;;;;14.81;73.66;102246.22;7361844;19;20959;-63
2023/05/19 06:50:53;;;;;;;17.70;6.13;;;;;;;14.85;72.01;102250.25;7362406;19;20025;-62
2023/05/19 06:53:21;;;;;;;17.27;6.88;;;;;;;14.83;72.11;102240.78;7365573;19;20022;-62
2023/05/19 06:55:49;;;;;;;14.20;5.57;;;;;;;14.80;71.79;102236.59;7363932;19;20014;-63
2023/05/19 06:58:26;;;;;;;11.65;4.90;;;;;;;14.81;71.91;102243.56;7365789;19;20030;-62
2023/05/19 07:00:53;;;;;;;15.15;6.40;;;;;;;14.79;71.58;102234.09;7361960;19;20025;-62
2023/05/19 07:03:20;;;;;;;11.02;5.32;;;;;;;14.81;71.90;102246.22;7362406;19;20025;-62
2023/05/19 07:05:48;;;;;;;11.80;5.70;;;;;;;14.85;71.55;102236.16;7364468;19;20059;-63
2023/05/19 07:08:15;;;;;;;14.98;6.07;;;;;;;14.88;71.81;102244.66;7368505;19;20003;-63
2023/05/19 07:10:43;;;;;;;15.15;5.75;;;;;;;14.88;72.29;102249.94;7365935;19;20034;-62
2023/05/19 07:13:10;;;;;;;13.68;5.82;;;;;;;14.89;71.72;102253.44;7366501;19;20019;-63
2023/05/19 07:15:37;;;;;;;19.20;5.57;;;;;;;14.90;71.87;102253.28;7362518;19;20136;-63
2023/05/19 07:18:05;;;;;;;14.82;5.43;;;;;;;14.91;71.65;102254.13;7361595;19;20019;-63
2023/05/19 07:20:32;;;;;;;11.55;5.20;;;;;;;15.02;70.77;102266.38;7362514;19;20776;-62
2023/05/19 07:23:01;;;;;;;14.32;5.38;;;;;;;15.03;70.15;102266.22;7363438;19;20041;-62
2023/05/19 07:25:29;;;;;;;9.50;4.75;;;;;;;15.05;70.74;102258.94;7364000;19;20695;-62
2023/05/19 07:27:56;;;;;;;16.65;6.45;;;;;;;15.05;71.15;102258.94;7364577;19;20015;-63
2023/05/19 07:30:26;;;;;;;17.17;6.55;;;;;;;15.07;70.41;102264.13;7363081;19;20059;-63
2023/05/19 07:32:53;;;;;;;12.18;5.10;;;;;;;15.05;70.72;102268.72;7362692;19;20022;-63
2023/05/19 07:35:22;;;;;;;13.18;5.53;;;;;;;15.01;71.61;102264.69;7364093;19;20014;-62
2023/05/19 07:37:54;;;;;;;16.38;5.65;;;;;;;14.97;71.24;102267.66;7363499;19;20081;-64
2023/05/19 07:40:24;;;;;;;14.20;5.80;;;;;;;14.94;71.60;102281.19;7361998;19;20954;-62
2023/05/19 07:42:51;;;;;;;15.85;5.85;;;;;;;14.99;71.06;102294.00;7363797;19;20014;-63
2023/05/19 07:45:19;;;;;;;13.57;5.20;;;;;;;15.00;70.90;102295.66;7362623;19;21658;-63
2023/05/19 07:47:46;;;;;;;17.20;5.55;;;;;;;14.99;71.00;102302.78;7361872;19;20025;-62
2023/05/19 07:50:15;;;;;;;18.00;6.00;;;;;;;14.95;71.27;102298.75;7364587;19;20015;-63
2023/05/19 07:52:45;;;;;;;11.77;6.07;;;;;;;14.95;71.09;102296.09;7360605;19;20010;-63
2023/05/19 07:55:13;;;;;;;15.40;5.93;;;;;;;14.91;70.57;102301.84;7364052;19;20095;-62
2023/05/19 07:57:41;;;;;;;10.95;5.40;;;;;;;14.95;70.78;102308.53;7363734;19;20026;-62
2023/05/19 08:00:11;;;;;;;17.95;6.40;;;;;;;14.99;70.07;102301.94;7361779;19;20106;-62
2023/05/19 08:02:38;;;;;;;15.35;5.07;;;;;;;15.05;70.31;102303.19;7363236;19;20006;-62
2023/05/19 08:05:08;;;;;;;11.38;5.00;;;;;;;15.06;69.63;102297.75;7360067;19;20021;-66
2023/05/19 08:07:35;;;;;;;11.43;4.78;;;;;;;15.11;70.67;102298.13;7362733;19;20014;-62
2023/05/19 08:10:04;;;;;;;13.60;5.60;;;;;;;15.19;70.28;102292.94;7362247;19;20014;-63
2023/05/19 08:12:31;;;;;;;13.70;4.93;;;;;;;15.23;67.75;102273.13;7363289;19;20479;-62
2023/05/19 08:14:58;;;;;;;10.73;4.53;;;;;;;15.22;68.21;102284.69;7361678;19;20087;-64
2023/05/19 08:17:27;;;;;;;20.95;4.38;;;;;;;15.38;76.39;102282.25;7361950;19;20030;-61
2023/05/19 08:19:56;;;;;;;14.82;4.88;;;;;;;15.41;71.34;102289.91;7363284;19;20919;-62
2023/05/19 08:22:23;;;;;;;18.58;5.80;;;;;;;15.46;69.23;102291.25;7360484;19;20688;-63
2023/05/19 08:24:50;;;;;;;12.60;4.03;;;;;;;15.44;67.74;102294.06;7361019;19;20516;-63
2023/05/19 08:27:18;;;;;;;11.38;3.95;;;;;;;15.31;68.32;102299.72;7364516;19;21136;-62
2023/05/19 08:29:45;;;;;;;12.48;4.75;;;;;;;15.23;68.76;102302.28;7365001;19;20015;-62
2023/05/19 08:32:14;;;;;;;17.80;4.82;;;;;;;15.19;69.72;102295.59;7362420;19;20649;-62
2023/05/19 08:34:42;;;;;;;12.82;4.88;;;;;;;15.15;69.82;102294.22;7363189;19;20014;-63
2023/05/19 08:37:10;;;;;;;12.30;5.25;;;;;;;15.12;68.03;102298.97;7359090;19;20114;-62
2023/05/19 08:39:38;;;;;;;10.98;4.03;;;;;;;15.12;67.95;102296.31;7361939;19;21633;-63
2023/05/19 08:42:06;;;;;;;14.25;4.60;;;;;;;15.13;68.46;102296.19;7359708;19;21084;-63
2023/05/19 08:44:36;;;;;;;12.50;4.38;;;;;;;15.14;66.43;102300.50;7359105;19;20015;-64
2023/05/19 08:47:04;;;;;;;10.32;3.95;;;;;;;15.18;67.04;102314.31;7358407;19;20010;-63
2023/05/19 08:49:34;;;;;;;10.07;3.80;;;;;;;15.22;67.35;102315.69;7361906;19;21082;-62
2023/05/19 08:52:09;;;;;;;8.27;3.50;;;;;;;15.30;65.96;102316.63;7362747;19;20022;-62
2023/05/19 08:54:45;;;;;;;11.43;3.28;;;;;;;15.32;66.77;102335.88;7363908;19;20117;-62
2023/05/19 08:57:13;;;;;;;8.75;3.67;;;;;;;15.35;66.77;102330.28;7361904;19;20101;-63
2023/05/19 08:59:42;;;;;;;10.55;4.55;;;;;;;15.44;67.32;102327.72;7361845;19;20021;-62
2023/05/19 09:02:12;;;;;;;10.40;4.00;;;;;;;15.52;66.75;102311.94;7360042;19;20034;-62
2023/05/19 09:04:44;;;;;;;13.13;4.28;;;;;;;15.61;66.03;102305.72;7360220;19;20010;-63
2023/05/19 09:07:13;;;;;;;11.63;3.95;;;;;;;15.59;65.48;102299.75;7360340;19;20125;-64
2023/05/19 09:09:42;;;;;;;13.70;4.55;;;;;;;15.54;66.43;102302.03;7362452;19;20038;-63
2023/05/19 09:12:10;;;;;;;14.18;4.68;;;;;;;15.54;67.31;102299.38;7359746;19;20014;-63
2023/05/19 09:14:39;;;;;;;11.60;4.57;;;;;;;15.55;67.30;102283.28;7360864;19;20027;-62
2023/05/19 09:17:06;;;;;;;17.00;5.65;;;;;;;15.57;67.74;102285.78;7359790;19;20010;-62
2023/05/19 09:19:34;;;;;;;12.48;4.80;;;;;;;15.60;67.80;102274.88;7344897;19;20018;-62
2023/05/19 09:22:02;;;;;;;13.10;5.25;;;;;;;15.71;67.13;102272.00;7354998;19;20014;-62
2023/05/19 09:24:30;;;;;;;13.00;4.13;;;;;;;15.76;66.33;102283.84;7359882;19;20032;-63
2023/05/19 09:26:58;;;;;;;9.98;4.25;;;;;;;15.80;66.26;102290.50;7358785;19;20033;-63
2023/05/19 09:29:26;;;;;;;12.52;4.80;;;;;;;15.77;65.90;102290.81;7359720;19;20498;-62
2023/05/19 09:31:59;;;;;;;10.93;3.75;;;;;;;15.84;64.92;102285.75;7355446;19;20753;-62
2023/05/19 09:34:26;;;;;;;8.85;2.85;;;;;;;15.91;65.04;102284.16;7359379;19;21167;-62
2023/05/19 09:36:56;;;;;;;10.25;2.90;;;;;;;15.94;64.67;102291.00;7359482;19;20015;-62
2023/05/19 09:39:24;;;;;;;10.93;3.00;;;;;;;16.08;61.19;102293.09;7360147;19;21726;-63
2023/05/19 09:41:54;;;;;;;7.60;2.30;;;;;;;16.02;60.30;102294.53;7359842;19;21763;-62
2023/05/19 09:44:22;;;;;;;9.30;3.50;;;;;;;15.95;59.86;102300.63;7357566;19;20112;-61
2023/05/19 09:46:51;;;;;;;8.32;2.25;;;;;;;15.88;60.57;102299.56;7355455;19;20014;-62
2023/05/19 09:49:20;;;;;;;8.95;2.35;;;;;;;15.84;59.92;102301.69;7360808;19;20014;-68
2023/05/19 09:51:50;;;;;;;9.77;3.30;;;;;;;15.76;60.91;102299.75;7360362;19;20035;-65
2023/05/19 09:54:20;;;;;;;8.55;2.42;;;;;;;15.77;61.04;102297.94;7355371;19;20014;-62
2023/05/19 09:56:55;;;;;;;11.63;3.42;;;;;;;15.69;60.41;102290.75;7358450;19;20010;-61
2023/05/19 09:59:24;;;;;;;13.15;3.03;;;;;;;15.73;61.39;102301.91;7358975;19;20014;-63
2023/05/19 10:01:55;;;;;;;9.50;3.15;;;;;;;15.64;61.51;102292.19;7354474;19;20058;-63
2023/05/19 10:04:25;;;;;;;7.40;3.00;;;;;;;15.65;62.14;102297.31;7353089;19;20018;-64
2023/05/19 10:06:54;;;;;;;11.60;3.10;;;;;;;15.73;61.53;102297.41;7356750;19;20007;-63
2023/05/19 10:09:23;;;;;;;13.32;2.80;;;;;;;15.76;62.18;102293.63;7359496;19;20018;-63
2023/05/19 10:11:52;;;;;;;11.57;3.38;;;;;;;15.84;61.74;102299.03;7358625;19;20018;-62
2023/05/19 10:14:24;;;;;;;10.07;3.75;;;;;;;15.86;62.83;102296.19;7359417;19;20138;-63
2023/05/19 10:16:53;;;;;;;9.98;2.85;;;;;;;15.93;62.21;102299.94;7354017;19;20034;-62
2023/05/19 10:19:25;;;;;;;17.35;3.78;;;;;;;15.87;62.63;102293.41;7361059;19;20566;-63
2023/05/19 10:21:54;;;;;;;9.27;3.80;;;;;;;15.78;63.50;102303.13;7351244;19;20011;-62
2023/05/19 10:24:23;;;;;;;9.38;3.47;;;;;;;15.80;63.60;102297.63;7355340;19;20909;-61
2023/05/19 10:26:57;;;;;;;10.25;3.53;;;;;;;15.87;62.89;102296.06;7355752;19;20014;-62
2023/05/19 10:29:29;;;;;;;12.70;2.90;;;;;;;15.96;62.45;102296.97;7356596;19;20017;-63
2023/05/19 10:32:03;;;;;;;13.48;3.47;;;;;;;16.05;62.47;102296.88;7353712;19;20047;-64
2023/05/19 10:34:39;;;;;;;9.57;4.40;;;;;;;16.11;62.16;102295.44;7357982;19;20019;-62
2023/05/19 10:37:23;;;;;;;8.55;2.65;;;;;;;16.30;62.25;102299.78;7358829;19;20098;-62
2023/05/19 10:39:52;;;;;;;9.35;3.15;;;;;;;16.41;61.93;102302.16;7359526;19;20052;-62
2023/05/19 10:42:31;;;;;;;10.05;2.72;;;;;;;16.47;60.96;102290.94;7356505;19;20025;-64
2023/05/19 10:45:08;;;;;;;4.97;1.63;;;;;;;16.55;60.55;102289.19;7355136;19;20022;-62
2023/05/19 10:47:36;;;;;;;8.90;2.70;;;;;;;16.63;60.78;102289.25;7354494;19;20022;-63
2023/05/19 10:50:05;;;;;;;9.07;2.67;;;;;;;16.65;60.92;102276.66;7357559;19;20352;-63
2023/05/19 10:52:38;;;;;;;9.05;3.08;;;;;;;16.67;61.90;102271.16;7354541;19;20459;-63
2023/05/19 10:55:08;;;;;;;10.45;3.17;;;;;;;16.62;62.78;102273.44;7358415;19;20018;-63
2023/05/19 10:57:36;;;;;;;14.43;4.13;;;;;;;16.61;62.75;102269.13;7355184;19;20014;-63
2023/05/19 11:00:27;;;;;;;7.53;2.78;;;;;;;16.65;63.80;102278.47;7355024;19;20015;-63
2023/05/19 11:03:14;;;;;;;9.80;3.00;;;;;;;16.71;64.30;102275.16;7359910;19;20023;-63
2023/05/19 11:05:45;;;;;;;8.55;3.00;;;;;;;16.75;62.89;102268.56;7354187;19;20022;-64
2023/05/19 11:08:12;;;;;;;8.35;3.35;;;;;;;16.78;63.05;102267.41;7363959;19;20022;-64
2023/05/19 11:10:44;;;;;;;9.77;3.60;;;;;;;16.78;62.94;102267.41;7363584;19;20014;-63
2023/05/19 11:13:19;;;;;;;10.00;3.67;;;;;;;16.81;63.33;102269.78;7364541;19;21937;-63
2023/05/19 11:15:49;;;;;;;9.88;3.85;;;;;;;16.86;62.64;102272.78;7362097;19;20018;-62
2023/05/19 11:18:17;;;;;;;7.70;3.83;;;;;;;17.00;63.12;102264.22;7362589;19;20010;-63
2023/05/19 11:20:59;;;;;;;12.30;4.05;;;;;;;17.09;62.62;102257.91;7363358;19;20028;-63
2023/05/19 11:23:27;;;;;;;12.05;3.35;;;;;;;17.26;60.86;102261.50;7361972;19;20014;-62
2023/05/19 11:25:54;;;;;;;10.88;3.22;;;;;;;17.27;60.95;102255.19;7364512;19;20015;-62
2023/05/19 11:28:24;;;;;;;7.97;3.45;;;;;;;17.30;61.31;102253.03;7366760;19;20055;-62
2023/05/19 11:30:56;;;;;;;11.40;2.90;;;;;;;17.40;61.27;102244.91;7359474;19;20014;-63
2023/05/19 11:33:26;;;;;;;8.70;3.28;;;;;;;17.48;61.47;102247.56;7359024;19;20006;-63
2023/05/19 11:38:28;;;;;;;10.13;2.60;;;;;;;17.68;60.27;102254.28;7359509;19;20018;-62